createdAt,value
2019-03-29T00:05:01.198Z,28.18
2019-03-29T00:10:10.063Z,27.11
2019-03-29T00:15:18.945Z,25.99
2019-03-29T00:20:27.843Z,28.79
2019-03-29T00:25:36.872Z,26.46
2019-03-29T00:30:45.712Z,28.37
2019-03-29T00:35:54.611Z,27.63
2019-03-29T00:41:03.501Z,22.37
2019-03-29T00:46:12.365Z,22.23
2019-03-29T00:51:21.253Z,25.00
2019-03-29T00:56:30.300Z,28.04
2019-03-29T01:01:39.155Z,27.24
2019-03-29T01:06:48.092Z,30.66
2019-03-29T01:11:56.972Z,22.56
2019-03-29T01:17:05.865Z,24.28
2019-03-29T01:22:14.722Z,29.55
2019-03-29T01:27:23.607Z,27.86
2019-03-29T01:32:33.023Z,29.87
2019-03-29T01:37:40.968Z,28.10
2019-03-29T01:42:49.835Z,25.68
2019-03-29T01:47:58.708Z,31.59
2019-03-29T01:53:07.572Z,24.99
2019-03-29T01:58:16.511Z,27.62
2019-03-29T02:03:25.411Z,30.18
2019-03-29T02:08:35.901Z,36.08
2019-03-29T02:13:42.732Z,34.63
2019-03-29T02:18:51.648Z,39.86
2019-03-29T02:24:00.508Z,38.99
2019-03-29T02:29:10.244Z,37.48
2019-03-29T02:34:17.779Z,40.53
2019-03-29T02:39:27.044Z,41.29
2019-03-29T02:44:35.325Z,41.12
2019-03-29T02:49:44.065Z,38.81
2019-03-29T02:54:52.939Z,42.98
2019-03-29T03:00:01.930Z,38.17
2019-03-29T03:05:10.820Z,37.60
2019-03-29T03:10:19.895Z,39.10
2019-03-29T03:15:28.785Z,36.46
2019-03-29T03:20:37.723Z,36.86
2019-03-29T03:25:46.608Z,39.66
2019-03-29T03:30:55.535Z,35.19
2019-03-29T03:36:04.452Z,35.40
2019-03-29T03:41:13.365Z,32.06
2019-03-29T03:46:22.272Z,30.95
2019-03-29T03:51:31.196Z,76.16
2019-03-29T03:56:40.124Z,102.66
2019-03-29T04:01:49.025Z,141.88
2019-03-29T04:06:57.870Z,163.77
2019-03-29T04:12:06.812Z,119.85
2019-03-29T04:17:15.716Z,32.77
2019-03-29T04:22:24.589Z,22.98
2019-03-29T04:27:33.473Z,14.77
2019-03-29T04:32:42.433Z,13.49
2019-03-29T04:37:51.349Z,12.67
2019-03-29T04:43:00.394Z,14.23
2019-03-29T04:48:09.337Z,18.24
2019-03-29T04:53:18.218Z,20.27
2019-03-29T04:58:27.069Z,21.12
2019-03-29T05:03:35.993Z,20.26
2019-03-29T05:08:44.903Z,22.16
2019-03-29T05:13:53.816Z,20.94
2019-03-29T05:19:02.696Z,24.72
2019-03-29T05:24:11.608Z,23.11
2019-03-29T05:29:20.493Z,22.00
2019-03-29T05:34:29.348Z,18.84
2019-03-29T05:39:38.203Z,25.33
2019-03-29T05:44:47.089Z,26.32
2019-03-29T05:49:55.961Z,54.40
2019-03-29T05:55:05.023Z,44.06
2019-03-29T06:00:13.936Z,28.21
2019-03-29T06:05:22.826Z,21.91
2019-03-29T06:10:31.756Z,22.69
2019-03-29T06:15:40.608Z,20.36
2019-03-29T06:20:49.488Z,20.22
2019-03-29T06:25:58.395Z,21.90
2019-03-29T06:31:07.292Z,22.73
2019-03-29T06:36:16.184Z,22.47
2019-03-29T06:41:25.056Z,28.42
2019-03-29T06:46:33.933Z,18.76
2019-03-29T06:51:42.800Z,19.32
2019-03-29T06:56:51.719Z,22.63
2019-03-29T07:02:00.630Z,25.08
2019-03-29T07:07:09.501Z,23.80
2019-03-29T07:12:18.405Z,29.88
2019-03-29T07:17:27.305Z,30.56
2019-03-29T07:22:36.159Z,34.20
2019-03-29T07:27:51.794Z,35.85
2019-03-29T07:32:53.445Z,36.84
2019-03-29T07:38:02.422Z,40.61
2019-03-29T07:43:11.280Z,35.24
2019-03-29T07:48:20.178Z,38.97
2019-03-29T07:53:29.092Z,36.58
2019-03-29T07:58:37.987Z,41.64
2019-03-29T08:03:46.900Z,40.79
2019-03-29T08:08:55.768Z,41.69
2019-03-29T08:14:04.688Z,51.69
2019-03-29T08:19:13.559Z,47.34
2019-03-29T08:24:22.444Z,48.47
2019-03-29T08:29:31.563Z,55.30
2019-03-29T08:34:40.231Z,59.32
2019-03-29T08:39:49.117Z,63.04
2019-03-29T08:44:57.987Z,58.07
2019-03-29T08:50:06.876Z,63.82
2019-03-29T08:55:17.545Z,66.66
2019-03-29T09:00:24.172Z,73.11
2019-03-29T09:05:33.092Z,73.65
2019-03-29T09:10:41.982Z,73.55
2019-03-29T09:15:50.892Z,80.43
2019-03-29T09:20:59.736Z,79.41
2019-03-29T09:26:08.659Z,79.84
2019-03-29T09:31:17.560Z,80.97
2019-03-29T09:36:26.463Z,82.96
2019-03-29T09:41:35.365Z,89.93
2019-03-29T09:46:44.258Z,83.15
2019-03-29T09:51:53.132Z,88.91
2019-03-29T09:57:02.028Z,83.21
2019-03-29T10:02:10.931Z,81.38
2019-03-29T10:07:19.908Z,74.30
2019-03-29T10:12:42.269Z,81.72
2019-03-29T10:17:37.181Z,83.19
2019-03-29T10:22:46.043Z,79.61
2019-03-29T10:27:54.944Z,77.84
2019-03-29T10:33:03.808Z,84.39
2019-03-29T10:38:12.724Z,71.93
2019-03-29T10:43:21.583Z,79.61
2019-03-29T10:48:30.520Z,72.30
2019-03-29T10:53:39.372Z,63.47
2019-03-29T10:58:48.259Z,69.11
2019-03-29T11:03:57.133Z,79.31
2019-03-29T11:09:06.081Z,74.51
2019-03-29T11:14:14.936Z,73.18
2019-03-29T11:19:23.784Z,70.97
2019-03-29T11:24:32.666Z,68.97
2019-03-29T11:29:41.552Z,71.60
2019-03-29T11:34:50.456Z,74.93
2019-03-29T11:39:59.375Z,69.27
2019-03-29T11:45:08.210Z,66.16
2019-03-29T11:50:17.108Z,66.50
2019-03-29T11:55:26.011Z,66.07
2019-03-29T12:00:35.020Z,67.14
2019-03-29T12:05:43.893Z,67.70
2019-03-29T12:10:52.741Z,67.32
2019-03-29T12:16:01.577Z,63.84
2019-03-29T12:21:10.489Z,67.62
2019-03-29T12:26:19.409Z,68.05
2019-03-29T12:31:28.301Z,75.58
2019-03-29T12:36:37.187Z,74.41
2019-03-29T12:41:46.101Z,79.31
2019-03-29T12:46:54.976Z,80.34
2019-03-29T12:52:03.849Z,88.26
2019-03-29T12:57:12.707Z,81.04
2019-03-29T13:02:21.623Z,83.76
2019-03-29T13:07:30.546Z,93.70
2019-03-29T13:12:39.467Z,92.99
2019-03-29T13:17:48.367Z,92.75
2019-03-29T13:22:57.261Z,88.40
2019-03-29T13:28:06.154Z,91.70
2019-03-29T13:33:15.028Z,85.61
2019-03-29T13:38:23.926Z,86.23
2019-03-29T13:43:32.816Z,84.63
2019-03-29T13:48:41.778Z,87.05
2019-03-29T13:53:50.552Z,94.32
2019-03-29T13:58:59.401Z,94.57
2019-03-29T14:04:08.297Z,96.23
2019-03-29T14:09:17.163Z,91.23
2019-03-29T14:14:37.601Z,91.73
2019-03-29T14:19:34.515Z,90.30
2019-03-29T14:24:43.426Z,84.14
2019-03-29T14:30:03.724Z,90.08
2019-03-29T14:35:00.791Z,90.87
2019-03-29T14:40:09.655Z,87.64
2019-03-29T14:45:18.569Z,83.45
2019-03-29T14:50:27.423Z,88.94
2019-03-29T14:55:36.315Z,94.05
2019-03-29T15:00:48.399Z,86.03
2019-03-29T15:05:53.639Z,92.04
2019-03-29T15:11:02.529Z,88.23
2019-03-29T15:16:11.472Z,83.51
2019-03-29T15:21:20.351Z,75.36
2019-03-29T15:26:29.251Z,77.66
2019-03-29T15:31:38.112Z,74.14
2019-03-29T15:36:47.044Z,71.88
2019-03-29T15:41:55.913Z,71.04
2019-03-29T15:47:04.804Z,70.16
2019-03-29T15:52:13.704Z,65.18
2019-03-29T15:57:22.644Z,68.70
2019-03-29T16:02:31.498Z,71.49
2019-03-29T16:07:40.428Z,66.14
2019-03-29T16:12:49.316Z,64.99
2019-03-29T16:17:58.243Z,65.41
2019-03-29T16:23:07.163Z,63.53
2019-03-29T16:28:16.079Z,60.26
2019-03-29T16:33:24.948Z,69.52
2019-03-29T16:38:34.038Z,68.37
2019-03-29T16:43:42.897Z,87.05
2019-03-29T16:48:51.823Z,67.41
2019-03-29T16:54:00.710Z,69.18
2019-03-29T16:59:09.767Z,63.67
2019-03-29T17:04:18.636Z,62.37
2019-03-29T17:09:27.519Z,58.26
2019-03-29T17:14:36.389Z,57.00
2019-03-29T17:19:45.259Z,54.35
2019-03-29T17:24:57.098Z,54.84
2019-03-29T17:30:02.652Z,53.70
2019-03-29T17:35:11.545Z,49.11
2019-03-29T17:40:20.478Z,53.77
2019-03-29T17:45:29.331Z,52.39
2019-03-29T17:50:38.229Z,49.48
2019-03-29T17:55:47.394Z,50.46
2019-03-29T18:00:55.965Z,49.14
2019-03-29T18:06:04.834Z,52.69
2019-03-29T18:11:13.709Z,55.79
2019-03-29T18:16:30.623Z,60.73
2019-03-29T18:21:30.992Z,62.38
2019-03-29T18:26:39.865Z,61.51
2019-03-29T18:31:48.753Z,60.59
2019-03-29T18:36:57.663Z,58.80
2019-03-29T18:42:06.564Z,61.55
2019-03-29T18:47:15.404Z,67.39
2019-03-29T18:52:24.320Z,67.08
2019-03-29T18:57:33.172Z,61.72
2019-03-29T19:02:42.044Z,64.81
2019-03-29T19:07:50.969Z,69.97
2019-03-29T19:12:59.890Z,66.96
2019-03-29T19:18:08.751Z,67.59
2019-03-29T19:23:17.632Z,69.09
2019-03-29T19:28:26.491Z,67.37
2019-03-29T19:33:35.399Z,66.28
2019-03-29T19:38:44.352Z,72.25
2019-03-29T19:43:53.195Z,77.23
2019-03-29T19:49:02.119Z,78.79
2019-03-29T19:54:11.033Z,80.95
2019-03-29T19:59:20.646Z,78.13
2019-03-29T20:04:29.283Z,74.16
2019-03-29T20:09:38.197Z,76.32
2019-03-29T20:14:47.415Z,78.58
2019-03-29T20:19:55.940Z,76.83
2019-03-29T20:25:04.895Z,83.62
2019-03-29T20:30:13.760Z,89.61
2019-03-29T20:35:22.617Z,82.99
2019-03-29T20:40:32.147Z,85.55
2019-03-29T20:45:39.874Z,87.73
2019-03-29T20:50:48.759Z,88.36
2019-03-29T20:55:58.389Z,83.69
2019-03-29T21:01:06.086Z,89.17
2019-03-29T21:06:14.975Z,87.03
2019-03-29T21:11:23.876Z,86.37
2019-03-29T21:16:32.752Z,91.05
2019-03-29T21:21:41.655Z,94.80
2019-03-29T21:26:50.536Z,93.48
2019-03-29T21:31:59.429Z,90.22
2019-03-29T21:37:08.690Z,111.05
2019-03-29T21:42:17.576Z,111.80
2019-03-29T21:47:26.445Z,113.24
2019-03-29T21:52:35.352Z,106.89
2019-03-29T21:57:44.331Z,117.30
2019-03-29T22:02:53.203Z,114.14
2019-03-29T22:08:02.184Z,113.87
2019-03-29T22:13:11.069Z,110.56
2019-03-29T22:18:19.988Z,119.56
2019-03-29T22:23:28.885Z,115.08
2019-03-29T22:28:37.782Z,107.93
2019-03-29T22:33:46.665Z,109.51
2019-03-29T22:38:55.644Z,111.17
2019-03-29T22:44:04.534Z,115.21
2019-03-29T22:49:13.430Z,115.92
2019-03-29T22:54:22.289Z,120.96
2019-03-29T22:59:31.256Z,122.24
2019-03-29T23:04:40.125Z,117.95
2019-03-29T23:09:49.013Z,128.59
2019-03-29T23:14:57.875Z,124.45
2019-03-29T23:20:06.763Z,119.46
2019-03-29T23:25:15.694Z,125.64
2019-03-29T23:30:24.616Z,116.80
2019-03-29T23:35:33.489Z,124.56
2019-03-29T23:40:42.446Z,123.00
2019-03-29T23:45:51.328Z,132.24
2019-03-29T23:51:00.278Z,128.34
2019-03-29T23:56:09.211Z,129.99
